Time;durP1;ratioP1;P1;durP2;ratioP2;P2;SDS_P1;SDS_P2;PMS_P1;PMS_P2;Temp;Humidity;BMP_temperature;BMP_pressure;BME280_temperature;BME280_humidity;BME280_pressure;Samples;Min_cycle;Max_cycle;Signal;HPM_P1;HPM_P2
2021/09/30 00:00:52;;;;;;;8.60;2.10;;;;;;;9.36;96.88;102412.91;4951320;28;20818;-67
2021/09/30 00:03:19;;;;;;;5.25;2.13;;;;;;;9.40;96.10;102421.75;4954223;28;20058;-67
2021/09/30 00:05:47;;;;;;;8.80;2.05;;;;;;;9.37;95.94;102420.00;4950508;28;20082;-67
2021/09/30 00:08:15;;;;;;;7.03;2.10;;;;;;;9.39;96.05;102423.56;4959528;28;20144;-67
2021/09/30 00:10:52;;;;;;;4.50;1.83;;;;;;;9.41;95.14;102428.88;4956224;28;20206;-67
2021/09/30 00:13:36;;;;;;;10.40;2.05;;;;;;;9.39;94.61;102420.88;4946002;28;20668;-67
2021/09/30 00:32:59;;;;;;;10.52;3.03;;;;;;;9.34;94.79;102433.31;4949605;28;20109;-68
2021/09/30 00:35:35;;;;;;;8.98;2.33;;;;;;;9.37;93.63;102444.00;4955099;28;20498;-68
2021/09/30 00:41:15;;;;;;;5.47;1.90;;;;;;;9.28;94.64;102441.31;4890765;29;20058;-89
2021/09/30 00:46:46;;;;;;;6.50;2.25;;;;;;;9.37;93.49;102446.66;4963497;28;20046;-91
2021/09/30 00:49:24;;;;;;;5.35;1.95;;;;;;;9.29;94.13;102448.44;4962249;28;20050;-90
2021/09/30 00:52:01;;;;;;;5.60;2.00;;;;;;;9.23;94.95;102445.75;4964791;28;20043;-90
2021/09/30 01:46:49;;;;;;;6.22;1.80;;;;;;;9.48;90.93;102451.94;4962092;28;20142;-91
2021/09/30 01:52:50;;;;;;;6.13;2.00;;;;;;;9.42;91.90;102454.66;4959650;28;20055;-90
2021/09/30 01:58:28;;;;;;;8.10;2.28;;;;;;;9.47;91.84;102455.53;4957644;28;20055;-91
2021/09/30 02:21:05;;;;;;;7.18;2.15;;;;;;;9.27;90.58;102458.22;4957017;28;20064;-91
2021/09/30 02:59:04;;;;;;;9.07;2.78;;;;;;;8.98;92.58;102457.31;4949235;28;20058;-90
2021/09/30 03:01:36;;;;;;;6.80;2.15;;;;;;;9.00;91.85;102462.66;4960825;28;20094;-90
2021/09/30 03:04:07;;;;;;;4.82;1.80;;;;;;;8.90;92.39;102459.09;4955568;28;20047;-90
2021/09/30 03:06:37;;;;;;;5.10;1.77;;;;;;;9.01;91.43;102463.53;4963325;28;20105;-89
2021/09/30 03:09:11;;;;;;;10.15;2.58;;;;;;;8.95;92.23;102465.28;4960743;28;20058;-88
2021/09/30 03:12:08;;;;;;;10.82;2.15;;;;;;;8.90;93.21;102466.19;4955358;28;20050;-90
2021/09/30 03:14:45;;;;;;;5.18;2.08;;;;;;;8.82;93.64;102462.63;4961729;28;20137;-89
2021/09/30 03:17:20;;;;;;;6.43;2.10;;;;;;;8.79;93.80;102472.38;4958709;28;20610;-89
2021/09/30 03:19:59;;;;;;;8.60;2.42;;;;;;;8.76;94.15;102463.50;4962088;28;20059;-89
2021/09/30 03:22:30;;;;;;;11.00;2.53;;;;;;;8.71;93.91;102481.25;4951398;28;20072;-89
2021/09/30 03:25:08;;;;;;;8.35;2.00;;;;;;;8.68;94.46;102479.47;4952784;28;20061;-89
2021/09/30 03:27:39;;;;;;;8.30;2.30;;;;;;;8.56;94.70;102472.38;4956008;28;20042;-90
2021/09/30 03:30:12;;;;;;;7.28;2.10;;;;;;;8.50;95.03;102476.78;4958664;28;20101;-89
2021/09/30 03:32:44;;;;;;;5.45;1.80;;;;;;;8.49;95.19;102481.19;4956307;28;20565;-90
2021/09/30 03:35:17;;;;;;;8.32;2.20;;;;;;;8.41;95.45;102480.25;4957503;28;20047;-89
2021/09/30 03:37:48;;;;;;;7.43;2.45;;;;;;;8.47;94.86;102482.97;4958459;28;20097;-89
2021/09/30 03:40:25;;;;;;;8.57;2.00;;;;;;;8.49;94.00;102488.28;4950703;28;20082;-88
2021/09/30 03:42:55;;;;;;;7.32;2.00;;;;;;;8.57;93.25;102487.44;4954528;28;20106;-90
2021/09/30 03:45:28;;;;;;;6.70;2.20;;;;;;;8.62;93.26;102489.22;4954161;28;20614;-88
2021/09/30 03:47:58;;;;;;;9.05;2.63;;;;;;;8.68;92.61;102489.22;4953797;28;20186;-88
2021/09/30 03:50:30;;;;;;;9.27;2.15;;;;;;;8.62;92.21;102487.44;4955735;28;20055;-90
2021/09/30 03:53:03;;;;;;;7.82;2.08;;;;;;;8.66;92.17;102501.66;4948899;28;20312;-88
2021/09/30 03:55:54;;;;;;;9.20;2.17;;;;;;;8.66;91.95;102499.88;4955412;28;20065;-90
2021/09/30 04:01:11;;;;;;;4.38;2.33;;;;;;;8.65;91.87;102500.75;4953268;28;20054;-89
2021/09/30 04:03:40;;;;;;;12.30;2.75;;;;;;;8.67;91.33;102499.00;4960144;28;20047;-89
2021/09/30 04:06:12;;;;;;;8.27;2.30;;;;;;;8.62;92.41;102506.06;4966146;28;20119;-89
2021/09/30 04:08:51;;;;;;;12.25;2.33;;;;;;;8.63;92.31;102502.50;4966206;28;20070;-88
2021/09/30 04:11:28;;;;;;;7.07;2.35;;;;;;;8.63;92.07;102506.97;4964538;28;20165;-88
2021/09/30 04:13:57;;;;;;;4.97;1.95;;;;;;;8.62;92.71;102506.06;4965029;28;20115;-88
2021/09/30 04:16:28;;;;;;;6.97;2.33;;;;;;;8.81;91.14;102511.44;4961330;28;20077;-88
2021/09/30 04:18:57;;;;;;;7.38;2.58;;;;;;;8.82;92.59;102519.44;4956647;28;20051;-91
2021/09/30 04:21:27;;;;;;;6.43;2.40;;;;;;;8.77;92.01;102510.56;4964068;28;20238;-90
2021/09/30 04:23:56;;;;;;;6.32;2.50;;;;;;;8.74;93.53;102507.88;4965154;28;20051;-90
2021/09/30 04:26:33;;;;;;;6.15;3.05;;;;;;;8.73;93.27;102516.72;4966222;28;20132;-90
2021/09/30 04:29:03;;;;;;;;;;;;;;;8.71;93.26;102526.50;4960419;28;20060;-90
2021/09/30 04:31:33;;;;;;;7.22;2.50;;;;;;;8.65;94.16;102519.41;4958773;28;19929;-90
2021/09/30 04:34:06;;;;;;;10.98;2.50;;;;;;;8.69;93.73;102518.50;4957086;28;20161;-89
2021/09/30 04:36:35;;;;;;;6.88;2.50;;;;;;;8.70;93.92;102524.72;4963380;28;20497;-90
2021/09/30 04:39:11;;;;;;;7.57;2.70;;;;;;;8.74;94.02;102529.16;4964731;28;20061;-88
2021/09/30 04:41:44;;;;;;;8.30;2.55;;;;;;;8.72;93.99;102525.63;4966849;28;20053;-90
2021/09/30 04:44:16;;;;;;;8.15;2.60;;;;;;;8.76;93.45;102532.72;4959157;28;20590;-90
2021/09/30 04:46:45;;;;;;;18.92;3.70;;;;;;;8.77;93.92;102526.53;4959910;28;20046;-90
2021/09/30 04:49:20;;;;;;;6.70;2.20;;;;;;;8.81;93.87;102528.28;4959724;28;20054;-89
2021/09/30 04:51:55;;;;;;;10.70;3.33;;;;;;;8.91;93.38;102522.09;4968794;28;20059;-90
2021/09/30 04:54:31;;;;;;;7.88;2.70;;;;;;;8.96;93.40;102515.00;4962609;28;20043;-90
2021/09/30 04:57:03;;;;;;;7.28;2.33;;;;;;;9.06;93.67;102518.56;4961077;28;20535;-89
2021/09/30 04:59:37;;;;;;;9.48;3.00;;;;;;;9.22;91.94;102529.25;4961378;28;20137;-89
2021/09/30 05:02:07;;;;;;;6.78;2.35;;;;;;;9.19;93.58;102523.91;4960380;28;20342;-89
2021/09/30 05:04:38;;;;;;;9.70;2.30;;;;;;;9.14;92.05;102521.22;4960959;28;20046;-90
2021/09/30 05:07:13;;;;;;;10.88;2.67;;;;;;;9.10;92.87;102531.00;4958067;28;20054;-90
2021/09/30 05:09:48;;;;;;;8.85;2.17;;;;;;;9.09;92.39;102531.00;4960663;28;20105;-88
2021/09/30 05:12:22;;;;;;;9.25;2.25;;;;;;;9.14;91.72;102530.13;4960916;28;20423;-90
2021/09/30 05:14:51;;;;;;;13.50;2.33;;;;;;;9.21;90.28;102520.38;4957527;28;20087;-89
2021/09/30 05:17:24;;;;;;;9.20;2.47;;;;;;;9.28;88.66;102524.81;4955840;28;20046;-89
2021/09/30 05:19:56;;;;;;;7.22;2.03;;;;;;;9.25;89.11;102529.25;4957803;28;20054;-88
2021/09/30 05:22:30;;;;;;;6.68;1.88;;;;;;;9.21;89.75;102527.44;4958988;28;20050;-90
2021/09/30 05:25:00;;;;;;;10.23;2.03;;;;;;;9.13;89.32;102525.69;4958558;28;20694;-89
2021/09/30 05:27:38;;;;;;;9.77;2.20;;;;;;;9.12;88.81;102529.22;4957068;28;20179;-88
2021/09/30 05:30:10;;;;;;;6.25;2.00;;;;;;;9.06;89.18;102517.66;4961319;28;20090;-90
2021/09/30 05:32:41;;;;;;;8.18;2.33;;;;;;;9.06;89.76;102529.22;4962517;28;20061;-89
2021/09/30 05:35:10;;;;;;;7.68;2.03;;;;;;;9.03;89.27;102523.00;4971949;28;20051;-92
2021/09/30 05:37:40;;;;;;;8.23;2.63;;;;;;;8.92;90.14;102517.66;4967643;28;20145;-92
2021/09/30 05:40:20;;;;;;;8.05;2.53;;;;;;;8.85;90.35;102516.75;4965168;28;20047;-90
2021/09/30 05:43:16;;;;;;;6.03;2.15;;;;;;;8.81;90.63;102530.06;4967540;28;20059;-90
2021/09/30 05:45:53;;;;;;;9.55;2.63;;;;;;;8.78;90.88;102525.63;4969774;28;20050;-90
2021/09/30 05:48:25;;;;;;;6.15;2.35;;;;;;;8.74;90.58;102523.84;4966534;28;20119;-90
2021/09/30 05:51:12;;;;;;;7.82;2.33;;;;;;;8.66;90.45;102518.50;4968642;28;20098;-92
2021/09/30 05:53:44;;;;;;;7.80;2.28;;;;;;;8.65;90.79;102516.72;4960578;28;20349;-87
2021/09/30 05:56:14;;;;;;;6.68;2.53;;;;;;;8.60;90.53;102516.72;4962343;28;20034;-92
2021/09/30 05:58:45;;;;;;;7.90;2.50;;;;;;;8.54;90.66;102519.34;4961950;28;20241;-89
2021/09/30 06:01:30;;;;;;;8.48;2.17;;;;;;;8.55;91.41;102522.91;4967288;28;20046;-90
2021/09/30 06:12:39;;;;;;;9.30;3.60;;;;;;;8.38;93.58;102523.69;4923638;29;20059;-91
2021/09/30 06:15:15;;;;;;;12.25;10.68;;;;;;;8.45;93.68;102521.09;4943074;28;20059;-89
2021/09/30 06:17:46;;;;;;;7.03;3.90;;;;;;;8.41;93.82;102513.06;4960616;28;20141;-89
2021/09/30 06:20:21;;;;;;;15.13;12.07;;;;;;;8.47;92.44;102530.84;4973450;28;20055;-92
2021/09/30 06:22:50;;;;;;;13.10;5.60;;;;;;;8.51;92.84;102534.41;4965980;23;20058;-70
2021/09/30 06:25:18;;;;;;;17.98;13.15;;;;;;;8.54;92.29;102532.66;4945258;28;20561;-70
2021/09/30 06:27:46;;;;;;;10.52;7.13;;;;;;;8.58;93.76;102529.13;4947969;28;20057;-69
2021/09/30 06:30:16;;;;;;;11.40;4.03;;;;;;;8.68;92.88;102529.16;4950222;28;20130;-70
2021/09/30 06:32:49;;;;;;;7.10;3.47;;;;;;;8.73;92.89;102528.25;4946000;28;20540;-69
2021/09/30 06:35:17;;;;;;;17.23;9.13;;;;;;;8.86;93.81;102536.31;4950999;28;20138;-68
2021/09/30 06:37:45;;;;;;;12.85;7.10;;;;;;;9.02;92.75;102535.41;4949471;28;20050;-69
2021/09/30 06:40:13;;;;;;;16.88;5.40;;;;;;;9.21;90.88;102520.38;4947677;28;20492;-70
2021/09/30 06:42:41;;;;;;;16.65;6.15;;;;;;;9.31;91.51;102537.22;4942325;28;20081;-67
2021/09/30 06:45:10;;;;;;;10.65;3.33;;;;;;;9.57;89.21;102531.91;4950823;28;20133;-67
2021/09/30 06:47:39;;;;;;;7.93;3.40;;;;;;;9.72;88.80;102533.63;4948498;28;20451;-68
2021/09/30 06:50:14;;;;;;;8.50;3.83;;;;;;;9.82;89.26;102534.53;4947764;28;20059;-67
2021/09/30 06:52:42;;;;;;;55.55;22.52;;;;;;;9.91;87.99;102538.06;4943730;28;20101;-68
2021/09/30 06:55:12;;;;;;;592.08;369.02;;;;;;;9.96;89.11;102551.41;4950477;28;20051;-67
2021/09/30 06:57:40;;;;;;;24.05;15.85;;;;;;;9.99;89.34;102535.34;4948524;28;20687;-67
2021/09/30 07:00:09;;;;;;;366.55;119.72;;;;;;;10.08;89.25;102542.47;4950436;28;20523;-67
2021/09/30 07:02:40;;;;;;;84.00;38.80;;;;;;;10.10;90.45;102536.22;4952022;28;20173;-67
2021/09/30 07:05:10;;;;;;;195.00;62.13;;;;;;;10.19;90.00;102535.31;4953655;28;20063;-67
2021/09/30 07:07:38;;;;;;;10.00;3.83;;;;;;;10.25;90.42;102539.75;4952130;28;20423;-67
2021/09/30 07:10:10;;;;;;;25.70;12.00;;;;;;;10.30;91.08;102537.94;4948546;28;20615;-66
2021/09/30 07:12:38;;;;;;;9.40;4.10;;;;;;;10.33;90.68;102534.41;4951613;28;20585;-67
2021/09/30 07:15:07;;;;;;;54.50;38.22;;;;;;;10.43;91.22;102537.00;4949581;28;20138;-68
2021/09/30 07:17:35;;;;;;;9.90;3.85;;;;;;;10.51;90.76;102541.47;4951678;28;20053;-67
2021/09/30 07:20:05;;;;;;;108.72;69.88;;;;;;;10.54;90.93;102544.09;4953785;28;20053;-68
2021/09/30 07:22:33;;;;;;;14.43;7.22;;;;;;;10.55;91.44;102541.41;4948864;28;20482;-68
2021/09/30 07:25:01;;;;;;;12.85;4.70;;;;;;;10.56;91.31;102545.00;4953644;28;20075;-69
2021/09/30 07:27:29;;;;;;;14.27;5.90;;;;;;;10.58;91.76;102545.88;4949493;28;20481;-68
2021/09/30 07:29:56;;;;;;;14.50;5.70;;;;;;;10.61;91.22;102548.53;4947400;28;20047;-68
2021/09/30 07:32:25;;;;;;;121.18;80.05;;;;;;;10.70;90.59;102547.59;4952023;28;20078;-68
2021/09/30 07:34:53;;;;;;;8.90;3.58;;;;;;;10.83;91.03;102546.63;4946559;28;20059;-68
2021/09/30 07:37:22;;;;;;;16.10;9.75;;;;;;;11.01;89.99;102543.81;4947331;28;20066;-66
2021/09/30 07:39:49;;;;;;;11.45;4.40;;;;;;;11.28;88.61;102548.97;4950537;28;20126;-70
2021/09/30 07:42:17;;;;;;;8.68;4.10;;;;;;;11.50;88.90;102550.56;4948897;28;20063;-68
2021/09/30 07:44:45;;;;;;;7.45;3.17;;;;;;;11.57;87.54;102546.94;4950702;28;20391;-69
2021/09/30 07:47:13;;;;;;;8.10;2.83;;;;;;;11.71;86.68;102552.19;4950153;28;20150;-69
2021/09/30 07:49:41;;;;;;;11.88;3.92;;;;;;;11.67;86.70;102557.56;4951809;28;20039;-70
2021/09/30 07:52:09;;;;;;;6.97;3.63;;;;;;;11.54;87.54;102556.78;4946590;28;20158;-69
2021/09/30 07:54:38;;;;;;;8.45;2.80;;;;;;;11.89;87.23;102556.44;4949406;28;20106;-69
2021/09/30 07:57:06;;;;;;;10.82;4.72;;;;;;;11.81;87.39;102549.41;4948992;28;20051;-69
2021/09/30 07:59:59;;;;;;;10.10;2.92;;;;;;;12.15;85.42;102564.22;4946454;28;20058;-69
2021/09/30 08:02:30;;;;;;;8.80;3.30;;;;;;;12.43;85.22;102558.53;4952427;28;20047;-67
2021/09/30 08:04:58;;;;;;;11.15;6.40;;;;;;;12.74;84.64;102559.94;4946307;28;20054;-67
2021/09/30 08:07:26;;;;;;;9.32;3.35;;;;;;;12.45;84.43;102550.50;4951572;28;20760;-67
2021/09/30 08:09:55;;;;;;;13.55;5.18;;;;;;;12.80;83.86;102559.84;4946403;28;20130;-67
2021/09/30 08:12:23;;;;;;;10.60;3.35;;;;;;;12.56;83.78;102555.69;4944721;28;20112;-67
2021/09/30 08:14:51;;;;;;;12.98;4.93;;;;;;;12.35;83.11;102562.22;4952569;28;21557;-67
2021/09/30 08:17:19;;;;;;;8.52;3.13;;;;;;;12.26;83.55;102568.53;4946284;28;20366;-67
2021/09/30 08:19:46;;;;;;;8.88;2.88;;;;;;;12.36;83.29;102556.84;4948384;28;20065;-67
2021/09/30 08:22:15;;;;;;;10.82;4.60;;;;;;;12.73;83.48;102558.16;4950024;28;20054;-69
2021/09/30 08:24:43;;;;;;;11.13;3.15;;;;;;;12.77;82.42;102559.88;4947269;28;20055;-68
2021/09/30 08:27:12;;;;;;;12.07;2.63;;;;;;;12.82;84.14;102556.25;4952291;28;20390;-69
2021/09/30 08:29:40;;;;;;;5.63;2.90;;;;;;;12.69;84.03;102550.16;4949882;28;20142;-68
2021/09/30 08:32:12;;;;;;;12.65;3.42;;;;;;;12.73;82.80;102550.13;4947634;28;20145;-68
2021/09/30 08:34:39;;;;;;;6.22;2.67;;;;;;;12.76;83.36;102547.41;4948384;28;20134;-69
2021/09/30 08:37:09;;;;;;;7.75;4.03;;;;;;;12.74;81.97;102546.56;4947935;28;20055;-68
2021/09/30 08:39:37;;;;;;;7.75;3.38;;;;;;;12.79;81.13;102544.69;4950421;28;20053;-68
2021/09/30 08:42:05;;;;;;;8.85;3.22;;;;;;;12.68;79.15;102545.72;4950158;28;20061;-67
2021/09/30 08:44:34;;;;;;;7.40;2.45;;;;;;;12.65;78.69;102544.84;4948369;28;20137;-67
2021/09/30 08:47:04;;;;;;;13.88;3.85;;;;;;;12.63;77.86;102555.63;4950359;28;20327;-68
2021/09/30 08:49:34;;;;;;;7.93;2.13;;;;;;;12.63;77.90;102546.69;4947705;28;20051;-70
2021/09/30 08:52:02;;;;;;;6.88;2.30;;;;;;;12.57;77.85;102536.94;4952660;28;20055;-70
2021/09/30 08:54:30;;;;;;;6.15;2.22;;;;;;;12.61;77.40;102538.66;4945196;28;20098;-68
2021/09/30 08:56:58;;;;;;;7.72;2.30;;;;;;;12.66;76.93;102543.97;4949996;28;20061;-70
2021/09/30 08:59:27;;;;;;;8.27;2.28;;;;;;;12.68;76.71;102545.72;4947512;28;20174;-68
2021/09/30 09:02:10;;;;;;;11.90;2.65;;;;;;;12.65;76.06;102545.75;4948972;28;20142;-70
2021/09/30 09:04:53;;;;;;;12.02;3.38;;;;;;;12.63;76.82;102544.91;4954872;28;20054;-70
2021/09/30 09:07:24;;;;;;;8.75;2.40;;;;;;;12.73;77.25;102542.09;4953011;28;20063;-69
2021/09/30 09:09:52;;;;;;;9.93;2.10;;;;;;;12.65;76.20;102543.09;4951974;28;20058;-69
2021/09/30 09:12:20;;;;;;;6.35;2.20;;;;;;;12.68;75.66;102539.47;4949558;28;20053;-69
2021/09/30 09:14:48;;;;;;;10.45;2.60;;;;;;;12.68;75.14;102534.09;4952894;28;20134;-68
2021/09/30 09:17:19;;;;;;;8.82;2.47;;;;;;;12.71;74.63;102539.44;4952286;28;20093;-67
2021/09/30 09:19:49;;;;;;;10.68;3.63;;;;;;;12.78;74.67;102532.19;4951358;28;20050;-68
2021/09/30 09:22:19;;;;;;;8.85;2.30;;;;;;;12.78;73.99;102522.34;4951992;28;20077;-69
2021/09/30 09:25:03;;;;;;;6.63;2.50;;;;;;;12.86;73.39;102527.63;4951866;28;20069;-68
2021/09/30 09:27:44;;;;;;;;;;;;;;;12.96;72.28;102531.94;4953030;28;20733;-66
2021/09/30 09:30:34;;;;;;;10.75;2.47;;;;;;;13.11;72.88;102527.22;4947282;28;20400;-67
2021/09/30 09:33:09;;;;;;;9.98;3.35;;;;;;;13.18;70.50;102528.91;4953118;28;20046;-67
2021/09/30 09:36:03;;;;;;;4.68;2.70;;;;;;;13.31;71.84;102522.41;4952404;28;20043;-67
2021/09/30 09:38:45;;;;;;;7.05;2.50;;;;;;;13.30;70.57;102519.75;4951105;28;20082;-67
2021/09/30 09:41:22;;;;;;;9.15;2.60;;;;;;;13.42;70.75;102516.94;4952043;28;20385;-67
2021/09/30 09:43:51;;;;;;;5.60;2.05;;;;;;;13.45;69.44;102522.25;4952855;28;20143;-67
2021/09/30 09:46:21;;;;;;;8.02;2.30;;;;;;;13.47;69.53;102516.81;4951080;28;20138;-68
2021/09/30 09:49:00;;;;;;;8.35;3.55;;;;;;;13.47;69.84;102515.06;4952711;28;20073;-69
2021/09/30 09:51:35;;;;;;;8.88;2.30;;;;;;;13.53;70.10;102506.88;4950885;28;20161;-69
2021/09/30 09:54:08;;;;;;;5.57;2.05;;;;;;;13.62;70.44;102508.50;4947342;28;20055;-69
2021/09/30 09:57:10;;;;;;;8.73;2.83;;;;;;;13.87;70.58;102510.75;4950247;28;20163;-67
2021/09/30 09:59:41;;;;;;;7.63;2.60;;;;;;;13.73;69.57;102511.00;4953304;28;20858;-68
2021/09/30 10:02:26;;;;;;;8.95;2.25;;;;;;;13.69;68.96;102498.56;4950053;28;20059;-68
2021/09/30 10:04:56;;;;;;;6.70;1.90;;;;;;;13.82;68.78;102511.72;4953926;28;20499;-68
2021/09/30 10:07:24;;;;;;;10.38;5.72;;;;;;;13.75;67.79;102503.81;4950572;28;20120;-68
2021/09/30 10:09:52;;;;;;;7.57;2.35;;;;;;;13.69;67.20;102501.22;4950543;28;20141;-67
2021/09/30 10:12:20;;;;;;;6.57;2.42;;;;;;;13.71;68.23;102511.03;4950403;28;20598;-69
2021/09/30 10:14:47;;;;;;;8.23;3.05;;;;;;;13.83;68.17;102512.59;4949337;28;20134;-69
2021/09/30 10:17:15;;;;;;;7.53;2.88;;;;;;;13.81;68.33;102509.94;4952713;28;20051;-70
2021/09/30 10:19:43;;;;;;;7.22;2.58;;;;;;;13.90;67.91;102499.97;4953083;28;20895;-69
2021/09/30 10:22:13;;;;;;;8.00;2.72;;;;;;;13.96;68.61;102500.72;4951910;28;20541;-69
2021/09/30 10:24:44;;;;;;;6.18;2.42;;;;;;;13.96;69.05;102502.50;4942817;28;20169;-68
2021/09/30 10:27:13;;;;;;;4.78;2.05;;;;;;;13.75;68.26;102506.50;4951022;28;20082;-68
2021/09/30 10:29:45;;;;;;;7.55;2.60;;;;;;;13.79;68.90;102505.50;4947719;28;20585;-68
2021/09/30 10:32:15;;;;;;;4.55;1.80;;;;;;;13.76;68.21;102497.53;4954740;28;20146;-67
2021/09/30 10:34:46;;;;;;;4.70;1.67;;;;;;;13.85;68.43;102491.13;4951159;28;20051;-68
2021/09/30 10:37:21;;;;;;;5.15;2.05;;;;;;;13.86;68.36;102488.41;4949891;28;20064;-67
2021/09/30 10:40:13;;;;;;;6.70;2.15;;;;;;;13.86;67.74;102493.78;4949703;28;20150;-67
2021/09/30 10:42:44;;;;;;;5.00;1.80;;;;;;;13.72;67.27;102501.19;4949206;28;20505;-69
2021/09/30 10:45:14;;;;;;;8.63;2.00;;;;;;;13.82;66.22;102489.34;4949140;28;20061;-67
2021/09/30 10:47:42;;;;;;;9.27;2.13;;;;;;;13.95;66.71;102488.22;4952430;28;20053;-69
2021/09/30 10:50:17;;;;;;;17.35;2.90;;;;;;;13.92;66.16;102496.31;4954888;28;20388;-67
2021/09/30 10:52:54;;;;;;;8.48;2.15;;;;;;;13.88;67.41;102493.75;4945396;28;20471;-69
2021/09/30 10:55:32;;;;;;;7.68;2.42;;;;;;;13.92;67.81;102499.00;4952387;28;20065;-69
2021/09/30 10:58:02;;;;;;;7.40;2.30;;;;;;;13.98;67.77;102498.88;4950925;28;20051;-70
2021/09/30 11:00:47;;;;;;;10.68;2.72;;;;;;;13.82;67.92;102502.78;4951960;28;20130;-70
2021/09/30 11:03:24;;;;;;;7.95;2.22;;;;;;;13.53;67.15;102495.28;4948456;28;20105;-68
2021/09/30 11:06:24;;;;;;;9.35;2.25;;;;;;;13.43;67.15;102484.72;4949623;28;20101;-71
2021/09/30 11:09:17;;;;;;;6.95;1.88;;;;;;;13.36;67.13;102496.44;4943956;28;20719;-69
2021/09/30 11:11:48;;;;;;;25.65;14.55;;;;;;;13.41;67.28;102496.38;4944287;28;20097;-72
2021/09/30 11:14:24;;;;;;;11.13;3.22;;;;;;;13.50;67.86;102490.88;4953174;28;20046;-72
2021/09/30 11:16:55;;;;;;;11.52;3.63;;;;;;;13.61;67.68;102485.28;4949977;28;20066;-72
2021/09/30 11:19:34;;;;;;;7.30;2.45;;;;;;;13.46;67.92;102486.47;4948262;28;20065;-72
2021/09/30 11:22:05;;;;;;;7.82;2.40;;;;;;;13.59;68.42;102488.00;4949729;28;20568;-71
2021/09/30 11:24:53;;;;;;;11.57;2.42;;;;;;;13.33;68.64;102485.81;4951956;28;20109;-71
2021/09/30 11:27:32;;;;;;;8.40;2.22;;;;;;;13.37;68.93;102484.81;4950128;28;20086;-71
2021/09/30 11:30:18;;;;;;;6.95;2.35;;;;;;;13.41;68.19;102478.47;4951593;28;20406;-68
2021/09/30 11:33:10;;;;;;;4.07;1.70;;;;;;;13.53;69.18;102474.69;4949534;28;20062;-73
2021/09/30 11:35:47;;;;;;;4.72;1.70;;;;;;;13.63;69.06;102480.78;4950502;28;20043;-69
2021/09/30 11:38:15;;;;;;;8.18;2.10;;;;;;;13.72;67.80;102477.91;4951121;28;20129;-69
2021/09/30 11:40:49;;;;;;;3.58;1.60;;;;;;;13.50;65.95;102482.81;4948662;28;20171;-67
2021/09/30 11:43:19;;;;;;;5.18;1.77;;;;;;;13.58;66.73;102470.13;4948905;28;20542;-67
2021/09/30 11:45:47;;;;;;;4.13;1.70;;;;;;;13.68;66.13;102464.63;4952429;28;20133;-71
2021/09/30 11:48:14;;;;;;;6.18;1.60;;;;;;;13.74;65.57;102456.44;4951248;28;20065;-71
2021/09/30 11:50:44;;;;;;;5.65;1.98;;;;;;;13.80;65.96;102456.31;4945998;28;20074;-71
2021/09/30 11:53:16;;;;;;;5.13;1.77;;;;;;;13.74;65.44;102457.34;4945808;28;20173;-73
2021/09/30 11:55:44;;;;;;;8.20;2.05;;;;;;;13.75;65.25;102467.13;4945387;28;20052;-72
2021/09/30 11:58:15;;;;;;;3.30;1.67;;;;;;;13.62;64.37;102455.78;4947542;28;20383;-69
2021/09/30 12:00:45;;;;;;;4.78;1.95;;;;;;;13.74;64.93;102462.69;4950828;28;20600;-68
2021/09/30 12:03:18;;;;;;;5.82;1.85;;;;;;;13.72;64.72;102466.31;4946595;28;20425;-67
2021/09/30 12:05:47;;;;;;;7.85;2.13;;;;;;;13.52;65.08;102453.28;4948598;28;20110;-68
2021/09/30 12:08:16;;;;;;;7.60;2.10;;;;;;;13.44;65.55;102456.97;4945393;28;20141;-68
2021/09/30 12:10:44;;;;;;;7.07;1.90;;;;;;;13.37;65.63;102449.09;4945723;28;20461;-68
2021/09/30 12:13:19;;;;;;;7.40;2.25;;;;;;;13.42;66.33;102453.44;4947534;28;20066;-71
2021/09/30 12:15:48;;;;;;;7.60;2.03;;;;;;;13.49;67.09;102442.63;4950324;28;20490;-73
2021/09/30 12:18:18;;;;;;;7.00;2.20;;;;;;;13.46;67.52;102448.91;4950388;28;20153;-68
2021/09/30 12:20:53;;;;;;;5.68;1.85;;;;;;;13.48;67.46;102441.72;4943718;28;20066;-67
2021/09/30 12:23:22;;;;;;;8.55;2.75;;;;;;;13.39;67.20;102441.91;4949076;28;20109;-67
2021/09/30 12:25:50;;;;;;;7.57;1.77;;;;;;;13.49;67.10;102426.53;4950592;28;20057;-67
2021/09/30 12:28:19;;;;;;;8.27;1.92;;;;;;;13.58;67.42;102437.06;4947052;28;20169;-68
2021/09/30 12:30:47;;;;;;;6.18;1.73;;;;;;;13.72;66.60;102421.59;4950843;28;20054;-67
2021/09/30 12:33:15;;;;;;;6.85;1.90;;;;;;;13.79;66.28;102422.34;4947645;28;20082;-67
2021/09/30 12:35:44;;;;;;;6.82;1.98;;;;;;;14.07;66.53;102413.72;4949081;28;20467;-71
2021/09/30 12:38:14;;;;;;;4.13;1.80;;;;;;;14.38;66.42;102401.38;4952121;28;20043;-71
2021/09/30 12:40:45;;;;;;;7.95;2.45;;;;;;;14.53;66.57;102401.94;4954440;28;20484;-72
2021/09/30 12:43:17;;;;;;;6.93;2.20;;;;;;;14.57;66.14;102393.78;4953280;28;20413;-69
2021/09/30 12:45:48;;;;;;;6.30;2.00;;;;;;;14.47;65.47;102396.69;4952875;28;20138;-71
2021/09/30 12:48:17;;;;;;;6.30;2.90;;;;;;;14.68;66.96;102395.34;4956348;28;20070;-71
2021/09/30 12:50:48;;;;;;;6.72;2.85;;;;;;;14.68;66.65;102388.16;4953570;28;20051;-71
2021/09/30 12:53:18;;;;;;;10.10;2.97;;;;;;;14.49;66.34;102389.50;4948777;28;20153;-72
2021/09/30 12:55:47;;;;;;;8.10;2.45;;;;;;;14.46;66.43;102394.97;4953240;28;20133;-72
2021/09/30 12:58:28;;;;;;;11.73;2.75;;;;;;;14.25;66.35;102381.13;4951683;28;20554;-71
2021/09/30 13:00:59;;;;;;;8.43;1.98;;;;;;;14.45;66.81;102377.06;4951540;28;20122;-71
2021/09/30 13:03:28;;;;;;;7.97;2.72;;;;;;;14.54;66.11;102383.09;4951724;28;20058;-71
2021/09/30 13:05:57;;;;;;;16.73;2.95;;;;;;;14.52;65.78;102373.31;4950868;28;20039;-67
2021/09/30 13:08:39;;;;;;;12.23;2.75;;;;;;;14.62;66.69;102374.88;4952080;28;20220;-68
2021/09/30 13:11:27;;;;;;;7.55;2.40;;;;;;;14.24;66.85;102367.72;4952785;28;20050;-68
2021/09/30 13:14:14;;;;;;;8.13;2.83;;;;;;;14.33;66.88;102362.13;4952917;28;20097;-68
2021/09/30 13:16:46;;;;;;;10.30;2.42;;;;;;;14.34;67.34;102348.66;4950705;28;20050;-68
2021/09/30 13:19:15;;;;;;;9.25;3.15;;;;;;;14.29;67.27;102352.38;4953340;28;20054;-68
2021/09/30 13:22:07;;;;;;;8.20;2.50;;;;;;;14.33;67.93;102351.38;4951745;28;20066;-68
2021/09/30 13:24:59;;;;;;;6.60;2.00;;;;;;;14.36;67.98;102352.19;4953088;28;20129;-68
2021/09/30 13:27:30;;;;;;;6.93;2.28;;;;;;;14.13;68.24;102352.75;4952610;28;20047;-68
2021/09/30 13:29:58;;;;;;;8.35;2.58;;;;;;;13.85;69.22;102343.53;4951358;28;20193;-68
2021/09/30 13:32:28;;;;;;;9.80;2.60;;;;;;;14.01;69.66;102331.53;4950425;28;20067;-68
2021/09/30 13:34:57;;;;;;;6.85;2.78;;;;;;;14.01;70.04;102331.53;4951845;28;20130;-68
2021/09/30 13:37:26;;;;;;;8.52;2.85;;;;;;;14.15;69.85;102333.94;4952370;28;20051;-72
2021/09/30 13:39:57;;;;;;;9.85;2.80;;;;;;;13.83;70.18;102314.06;4953059;28;20112;-72
2021/09/30 13:42:26;;;;;;;7.53;2.47;;;;;;;13.86;70.67;102314.00;4951135;28;22030;-72
2021/09/30 13:44:54;;;;;;;12.05;3.17;;;;;;;13.83;71.40;102324.78;4951399;28;20228;-71
2021/09/30 13:47:23;;;;;;;10.07;2.90;;;;;;;13.85;71.50;102311.34;4952413;28;20058;-68
2021/09/30 13:49:52;;;;;;;10.68;3.10;;;;;;;14.01;71.53;102300.22;4947135;28;20061;-67
2021/09/30 13:52:20;;;;;;;8.32;3.00;;;;;;;13.81;71.09;102298.00;4948008;28;20061;-67
2021/09/30 13:54:48;;;;;;;9.60;3.45;;;;;;;13.78;71.45;102300.75;4946167;28;20625;-68
2021/09/30 13:57:16;;;;;;;11.95;3.28;;;;;;;13.89;71.97;102294.25;4947782;28;20145;-68
2021/09/30 13:59:44;;;;;;;11.48;2.72;;;;;;;13.94;70.72;102287.84;4949893;28;20180;-67
2021/09/30 14:02:32;;;;;;;5.72;2.38;;;;;;;13.94;69.64;102290.53;4946248;28;20058;-68
2021/09/30 14:05:02;;;;;;;11.20;3.47;;;;;;;14.10;69.93;102282.16;4953656;28;20494;-69
2021/09/30 14:07:30;;;;;;;10.77;2.58;;;;;;;14.07;68.88;102283.09;4946942;28;20047;-69
2021/09/30 14:09:58;;;;;;;8.93;2.33;;;;;;;14.07;69.79;102284.91;4951405;28;20121;-67
2021/09/30 14:12:26;;;;;;;10.20;3.80;;;;;;;14.09;69.03;102285.75;4950393;28;20711;-67
2021/09/30 14:14:54;;;;;;;7.82;2.33;;;;;;;13.84;69.65;102280.94;4948396;28;20070;-67
2021/09/30 14:17:22;;;;;;;11.13;2.38;;;;;;;13.74;68.67;102282.97;4951077;28;20065;-67
2021/09/30 14:19:50;;;;;;;8.88;2.15;;;;;;;13.80;68.76;102288.16;4949471;28;20058;-68